sensor_id;sensor_type;location;lat;lon;timestamp;pressure;altitude;pressure_sealevel;temperature;humidity
21824;BME280;11074;48.596;9.238;2022-09-09T00:04:34;97978.16;;;17.96;76.31
21824;BME280;11074;48.596;9.238;2022-09-09T00:10:34;97973.84;;;17.95;75.14
21824;BME280;11074;48.596;9.238;2022-09-09T00:16:00;97958.66;;;17.85;77.03
21824;BME280;11074;48.596;9.238;2022-09-09T00:21:36;97963.66;;;17.78;77.73
21824;BME280;11074;48.596;9.238;2022-09-09T00:24:26;97953.84;;;17.82;76.74
21824;BME280;11074;48.596;9.238;2022-09-09T00:27:04;97944.63;;;17.83;76.52
21824;BME280;11074;48.596;9.238;2022-09-09T00:29:43;97954.25;;;17.76;76.78
21824;BME280;11074;48.596;9.238;2022-09-09T00:32:18;97955.88;;;17.77;77.25
21824;BME280;11074;48.596;9.238;2022-09-09T00:37:38;97948.03;;;17.75;76.88
21824;BME280;11074;48.596;9.238;2022-09-09T00:43:31;97946.44;;;17.74;77.25
21824;BME280;11074;48.596;9.238;2022-09-09T00:46:21;97956.97;;;17.76;78.02
21824;BME280;11074;48.596;9.238;2022-09-09T00:49:22;97955.06;;;17.76;77.54
21824;BME280;11074;48.596;9.238;2022-09-09T00:55:03;97960.25;;;17.73;78.32
21824;BME280;11074;48.596;9.238;2022-09-09T00:57:35;97955.16;;;17.71;77.90
21824;BME280;11074;48.596;9.238;2022-09-09T01:00:24;97962.59;;;17.66;78.47
21824;BME280;11074;48.596;9.238;2022-09-09T01:06:00;97955.88;;;17.63;77.85
21824;BME280;11074;48.596;9.238;2022-09-09T01:11:32;97960.00;;;17.61;79.74
21824;BME280;11074;48.596;9.238;2022-09-09T01:17:13;97973.00;;;17.59;78.85
21824;BME280;11074;48.596;9.238;2022-09-09T01:22:50;97962.81;;;17.55;79.37
21824;BME280;11074;48.596;9.238;2022-09-09T01:25:28;97959.06;;;17.51;78.43
21824;BME280;11074;48.596;9.238;2022-09-09T01:28:03;97954.19;;;17.53;78.17
21824;BME280;11074;48.596;9.238;2022-09-09T01:30:31;97953.97;;;17.50;78.38
21824;BME280;11074;48.596;9.238;2022-09-09T01:32:58;97962.34;;;17.48;77.64
21824;BME280;11074;48.596;9.238;2022-09-09T01:38:10;97961.97;;;17.41;78.40
21824;BME280;11074;48.596;9.238;2022-09-09T01:40:37;97965.97;;;17.44;78.00
21824;BME280;11074;48.596;9.238;2022-09-09T01:43:03;97962.78;;;17.42;78.74
21824;BME280;11074;48.596;9.238;2022-09-09T01:45:30;97965.88;;;17.35;79.66
21824;BME280;11074;48.596;9.238;2022-09-09T01:47:57;97967.69;;;17.40;79.46
21824;BME280;11074;48.596;9.238;2022-09-09T01:50:22;97969.28;;;17.41;77.36
21824;BME280;11074;48.596;9.238;2022-09-09T01:52:54;97974.78;;;17.36;77.82
21824;BME280;11074;48.596;9.238;2022-09-09T01:55:31;97973.78;;;17.32;78.40
21824;BME280;11074;48.596;9.238;2022-09-09T02:01:43;97981.59;;;17.33;78.22
21824;BME280;11074;48.596;9.238;2022-09-09T02:07:01;97995.28;;;17.23;78.60
21824;BME280;11074;48.596;9.238;2022-09-09T02:09:30;97989.31;;;17.26;77.81
21824;BME280;11074;48.596;9.238;2022-09-09T02:12:14;97980.00;;;17.19;78.22
21824;BME280;11074;48.596;9.238;2022-09-09T02:14:50;97977.28;;;17.19;78.21
21824;BME280;11074;48.596;9.238;2022-09-09T02:17:30;97976.69;;;17.22;77.73
21824;BME280;11074;48.596;9.238;2022-09-09T02:20:10;97966.75;;;17.17;77.67
21824;BME280;11074;48.596;9.238;2022-09-09T02:22:42;97972.06;;;17.09;79.90
21824;BME280;11074;48.596;9.238;2022-09-09T02:25:12;97979.06;;;17.10;79.20
21824;BME280;11074;48.596;9.238;2022-09-09T02:27:43;97981.28;;;17.08;80.31
21824;BME280;11074;48.596;9.238;2022-09-09T02:30:11;97976.47;;;17.05;79.74
21824;BME280;11074;48.596;9.238;2022-09-09T02:32:39;97974.94;;;16.98;81.43
21824;BME280;11074;48.596;9.238;2022-09-09T02:35:13;97973.38;;;16.98;80.61
21824;BME280;11074;48.596;9.238;2022-09-09T02:37:42;97966.03;;;16.98;78.89
21824;BME280;11074;48.596;9.238;2022-09-09T02:40:12;97965.94;;;16.89;80.47
21824;BME280;11074;48.596;9.238;2022-09-09T02:42:43;97990.44;;;16.93;81.99
21824;BME280;11074;48.596;9.238;2022-09-09T02:45:12;97993.44;;;16.91;80.40
21824;BME280;11074;48.596;9.238;2022-09-09T02:47:48;97998.84;;;16.91;79.57
21824;BME280;11074;48.596;9.238;2022-09-09T02:50:39;97997.03;;;16.87;79.82
21824;BME280;11074;48.596;9.238;2022-09-09T02:53:19;97997.31;;;16.85;79.93
21824;BME280;11074;48.596;9.238;2022-09-09T02:56:09;97994.63;;;16.85;80.39
21824;BME280;11074;48.596;9.238;2022-09-09T02:58:39;97993.31;;;16.83;80.31
21824;BME280;11074;48.596;9.238;2022-09-09T03:01:05;97992.22;;;16.84;80.87
21824;BME280;11074;48.596;9.238;2022-09-09T03:03:31;97978.16;;;16.87;80.50
21824;BME280;11074;48.596;9.238;2022-09-09T03:05:58;97983.44;;;16.92;80.72
21824;BME280;11074;48.596;9.238;2022-09-09T03:08:23;97982.94;;;16.90;79.82
21824;BME280;11074;48.596;9.238;2022-09-09T03:10:49;97980.84;;;16.87;80.64
21824;BME280;11074;48.596;9.238;2022-09-09T03:13:15;97991.94;;;16.85;81.13
21824;BME280;11074;48.596;9.238;2022-09-09T03:15:41;97988.94;;;16.87;82.43
21824;BME280;11074;48.596;9.238;2022-09-09T03:18:07;97990.94;;;16.81;80.40
21824;BME280;11074;48.596;9.238;2022-09-09T03:20:33;97990.63;;;16.83;80.94
21824;BME280;11074;48.596;9.238;2022-09-09T03:23:00;97993.63;;;16.81;80.40
21824;BME280;11074;48.596;9.238;2022-09-09T03:25:26;97991.03;;;16.76;81.49
21824;BME280;11074;48.596;9.238;2022-09-09T03:27:53;97998.81;;;16.78;81.14
21824;BME280;11074;48.596;9.238;2022-09-09T03:30:26;97996.59;;;16.80;80.52
21824;BME280;11074;48.596;9.238;2022-09-09T03:32:52;98008.44;;;16.84;79.36
21824;BME280;11074;48.596;9.238;2022-09-09T03:35:18;98007.50;;;16.75;80.72
21824;BME280;11074;48.596;9.238;2022-09-09T03:37:45;98004.00;;;16.74;81.83
21824;BME280;11074;48.596;9.238;2022-09-09T03:40:11;98007.59;;;16.70;80.93
21824;BME280;11074;48.596;9.238;2022-09-09T03:42:38;98001.38;;;16.69;81.28
21824;BME280;11074;48.596;9.238;2022-09-09T03:45:07;98010.59;;;16.68;82.91
21824;BME280;11074;48.596;9.238;2022-09-09T03:47:34;98004.56;;;16.71;81.01
21824;BME280;11074;48.596;9.238;2022-09-09T03:50:00;97997.88;;;16.69;81.06
21824;BME280;11074;48.596;9.238;2022-09-09T03:52:25;97988.69;;;16.70;81.85
21824;BME280;11074;48.596;9.238;2022-09-09T03:54:52;97985.69;;;16.71;80.90
21824;BME280;11074;48.596;9.238;2022-09-09T03:57:19;97988.69;;;16.70;81.68
21824;BME280;11074;48.596;9.238;2022-09-09T03:59:45;97994.09;;;16.70;82.23
21824;BME280;11074;48.596;9.238;2022-09-09T04:02:11;97990.59;;;16.69;82.00
21824;BME280;11074;48.596;9.238;2022-09-09T04:04:37;97993.38;;;16.64;81.57
21824;BME280;11074;48.596;9.238;2022-09-09T04:07:03;97999.66;;;16.60;81.83
21824;BME280;11074;48.596;9.238;2022-09-09T04:09:31;97996.66;;;16.61;81.25
21824;BME280;11074;48.596;9.238;2022-09-09T04:11:57;97990.75;;;16.59;82.11
21824;BME280;11074;48.596;9.238;2022-09-09T04:14:23;97987.84;;;16.56;82.18
21824;BME280;11074;48.596;9.238;2022-09-09T04:16:48;97976.25;;;16.55;81.39
21824;BME280;11074;48.596;9.238;2022-09-09T04:19:14;97981.13;;;16.53;82.54
21824;BME280;11074;48.596;9.238;2022-09-09T04:21:41;97981.94;;;16.54;81.93
21824;BME280;11074;48.596;9.238;2022-09-09T04:24:09;97991.38;;;16.51;82.43
21824;BME280;11074;48.596;9.238;2022-09-09T04:26:36;97984.47;;;16.45;82.02
21824;BME280;11074;48.596;9.238;2022-09-09T04:29:04;97982.34;;;16.42;82.21
21824;BME280;11074;48.596;9.238;2022-09-09T04:31:30;97981.84;;;16.40;82.13
21824;BME280;11074;48.596;9.238;2022-09-09T04:33:56;97977.25;;;16.41;82.56
21824;BME280;11074;48.596;9.238;2022-09-09T04:36:22;97984.28;;;16.42;82.75
21824;BME280;11074;48.596;9.238;2022-09-09T04:38:48;97989.09;;;16.45;81.54
21824;BME280;11074;48.596;9.238;2022-09-09T04:41:15;97985.19;;;16.51;82.27
21824;BME280;11074;48.596;9.238;2022-09-09T04:43:42;97990.03;;;16.54;80.98
21824;BME280;11074;48.596;9.238;2022-09-09T04:46:08;97995.66;;;16.57;82.64
21824;BME280;11074;48.596;9.238;2022-09-09T04:48:34;97989.50;;;16.52;81.32
21824;BME280;11074;48.596;9.238;2022-09-09T04:51:11;97993.81;;;16.53;83.34
21824;BME280;11074;48.596;9.238;2022-09-09T04:53:37;97986.56;;;16.48;81.68
21824;BME280;11074;48.596;9.238;2022-09-09T04:56:14;97986.31;;;16.50;81.20
21824;BME280;11074;48.596;9.238;2022-09-09T04:58:40;97983.03;;;16.53;81.07
21824;BME280;11074;48.596;9.238;2022-09-09T05:01:15;97986.53;;;16.53;81.14
21824;BME280;11074;48.596;9.238;2022-09-09T05:03:42;97992.66;;;16.59;80.34
21824;BME280;11074;48.596;9.238;2022-09-09T05:06:17;97990.75;;;16.59;80.75
21824;BME280;11074;48.596;9.238;2022-09-09T05:08:44;97989.50;;;16.52;81.18
21824;BME280;11074;48.596;9.238;2022-09-09T05:11:22;97991.13;;;16.53;81.82
21824;BME280;11074;48.596;9.238;2022-09-09T05:13:50;97991.34;;;16.56;82.12
21824;BME280;11074;48.596;9.238;2022-09-09T05:16:17;97994.09;;;16.51;82.02
21824;BME280;11074;48.596;9.238;2022-09-09T05:18:44;97993.28;;;16.51;82.12
21824;BME280;11074;48.596;9.238;2022-09-09T05:21:11;97997.97;;;16.45;82.89
21824;BME280;11074;48.596;9.238;2022-09-09T05:23:37;98003.88;;;16.47;83.09
21824;BME280;11074;48.596;9.238;2022-09-09T05:26:05;97999.16;;;16.58;82.40
21824;BME280;11074;48.596;9.238;2022-09-09T05:28:34;98006.38;;;16.62;82.21
21824;BME280;11074;48.596;9.238;2022-09-09T05:31:03;98006.44;;;16.57;83.17
21824;BME280;11074;48.596;9.238;2022-09-09T05:33:31;98004.25;;;16.59;82.76
21824;BME280;11074;48.596;9.238;2022-09-09T05:36:19;97996.97;;;16.60;83.67
21824;BME280;11074;48.596;9.238;2022-09-09T05:38:46;98004.47;;;16.63;82.93
21824;BME280;11074;48.596;9.238;2022-09-09T05:41:13;98002.63;;;16.58;83.08
21824;BME280;11074;48.596;9.238;2022-09-09T05:43:41;98013.75;;;16.57;84.17
21824;BME280;11074;48.596;9.238;2022-09-09T05:46:16;98012.47;;;16.49;84.12
21824;BME280;11074;48.596;9.238;2022-09-09T05:48:45;98012.97;;;16.51;83.90
21824;BME280;11074;48.596;9.238;2022-09-09T05:51:27;98017.56;;;16.51;85.03
21824;BME280;11074;48.596;9.238;2022-09-09T05:53:55;98023.22;;;16.54;84.45
21824;BME280;11074;48.596;9.238;2022-09-09T05:56:26;98017.53;;;16.56;84.29
21824;BME280;11074;48.596;9.238;2022-09-09T05:58:54;98016.75;;;16.55;84.19
21824;BME280;11074;48.596;9.238;2022-09-09T06:01:23;98021.53;;;16.58;85.15
21824;BME280;11074;48.596;9.238;2022-09-09T06:03:51;98015.84;;;16.60;84.47
21824;BME280;11074;48.596;9.238;2022-09-09T06:06:23;98021.75;;;16.62;84.11
21824;BME280;11074;48.596;9.238;2022-09-09T06:08:53;98024.75;;;16.60;84.01
21824;BME280;11074;48.596;9.238;2022-09-09T06:11:23;98019.84;;;16.62;84.16
21824;BME280;11074;48.596;9.238;2022-09-09T06:13:50;98014.53;;;16.57;85.13
21824;BME280;11074;48.596;9.238;2022-09-09T06:16:23;98009.66;;;16.59;84.82
21824;BME280;11074;48.596;9.238;2022-09-09T06:18:49;98014.25;;;16.59;85.22
21824;BME280;11074;48.596;9.238;2022-09-09T06:21:23;98016.00;;;16.68;84.90
21824;BME280;11074;48.596;9.238;2022-09-09T06:23:49;98025.47;;;16.66;85.22
21824;BME280;11074;48.596;9.238;2022-09-09T06:26:22;98023.06;;;16.64;85.41
21824;BME280;11074;48.596;9.238;2022-09-09T06:28:51;98017.56;;;16.69;85.00
21824;BME280;11074;48.596;9.238;2022-09-09T06:31:21;98013.78;;;16.70;85.75
21824;BME280;11074;48.596;9.238;2022-09-09T06:33:53;98016.41;;;16.75;85.23
21824;BME280;11074;48.596;9.238;2022-09-09T06:36:24;98010.31;;;16.83;85.07
21824;BME280;11074;48.596;9.238;2022-09-09T06:38:50;98012.53;;;16.81;85.36
21824;BME280;11074;48.596;9.238;2022-09-09T06:41:19;98005.72;;;16.84;85.30
21824;BME280;11074;48.596;9.238;2022-09-09T06:43:48;98013.44;;;16.90;85.07
21824;BME280;11074;48.596;9.238;2022-09-09T06:46:23;98010.66;;;16.95;85.42
21824;BME280;11074;48.596;9.238;2022-09-09T06:48:49;98012.16;;;17.02;84.94
21824;BME280;11074;48.596;9.238;2022-09-09T06:51:21;98011.09;;;17.03;84.71
21824;BME280;11074;48.596;9.238;2022-09-09T06:53:51;98009.47;;;17.02;85.31
21824;BME280;11074;48.596;9.238;2022-09-09T06:56:25;98011.78;;;17.08;85.31
21824;BME280;11074;48.596;9.238;2022-09-09T06:58:55;98011.78;;;17.08;85.14
21824;BME280;11074;48.596;9.238;2022-09-09T07:01:27;98016.50;;;17.16;86.16
21824;BME280;11074;48.596;9.238;2022-09-09T07:03:56;98020.53;;;17.19;85.80
21824;BME280;11074;48.596;9.238;2022-09-09T07:06:28;98012.81;;;17.26;85.41
21824;BME280;11074;48.596;9.238;2022-09-09T07:08:57;98015.72;;;17.29;85.44
21824;BME280;11074;48.596;9.238;2022-09-09T07:11:28;98013.72;;;17.35;84.97
21824;BME280;11074;48.596;9.238;2022-09-09T07:13:54;98011.09;;;17.43;85.09
21824;BME280;11074;48.596;9.238;2022-09-09T07:16:22;98013.72;;;17.48;85.46
21824;BME280;11074;48.596;9.238;2022-09-09T07:18:51;98010.88;;;17.59;84.98
21824;BME280;11074;48.596;9.238;2022-09-09T07:21:18;98015.84;;;17.65;85.72
21824;BME280;11074;48.596;9.238;2022-09-09T07:23:46;98008.22;;;17.67;85.43
21824;BME280;11074;48.596;9.238;2022-09-09T07:26:16;98002.22;;;17.70;85.43
21824;BME280;11074;48.596;9.238;2022-09-09T07:28:42;98008.66;;;17.74;85.13
21824;BME280;11074;48.596;9.238;2022-09-09T07:31:21;98000.81;;;17.73;84.17
21824;BME280;11074;48.596;9.238;2022-09-09T07:33:48;97997.53;;;17.76;84.41
21824;BME280;11074;48.596;9.238;2022-09-09T07:36:21;98005.13;;;17.74;83.32
21824;BME280;11074;48.596;9.238;2022-09-09T07:38:53;98006.53;;;17.71;83.20
21824;BME280;11074;48.596;9.238;2022-09-09T07:41:27;98010.06;;;17.72;82.59
21824;BME280;11074;48.596;9.238;2022-09-09T07:43:54;98017.56;;;17.75;81.85
21824;BME280;11074;48.596;9.238;2022-09-09T07:46:22;98018.44;;;17.70;82.94
21824;BME280;11074;48.596;9.238;2022-09-09T07:48:51;98017.25;;;17.76;82.47
21824;BME280;11074;48.596;9.238;2022-09-09T07:51:21;98024.97;;;17.83;82.82
21824;BME280;11074;48.596;9.238;2022-09-09T07:53:52;98031.38;;;17.87;82.99
21824;BME280;11074;48.596;9.238;2022-09-09T07:56:19;98034.88;;;17.87;82.64
21824;BME280;11074;48.596;9.238;2022-09-09T07:58:52;98035.25;;;17.94;82.00
21824;BME280;11074;48.596;9.238;2022-09-09T08:01:27;98028.66;;;18.00;81.90
21824;BME280;11074;48.596;9.238;2022-09-09T08:04:03;98047.19;;;17.93;82.20
21824;BME280;11074;48.596;9.238;2022-09-09T08:06:34;98042.50;;;17.99;81.35
21824;BME280;11074;48.596;9.238;2022-09-09T08:09:00;98035.84;;;18.05;81.25
21824;BME280;11074;48.596;9.238;2022-09-09T08:11:29;98037.66;;;18.09;80.99
21824;BME280;11074;48.596;9.238;2022-09-09T08:13:55;98038.97;;;18.12;80.94
21824;BME280;11074;48.596;9.238;2022-09-09T08:16:29;98032.84;;;18.20;80.45
21824;BME280;11074;48.596;9.238;2022-09-09T08:18:56;98033.19;;;18.27;80.29
21824;BME280;11074;48.596;9.238;2022-09-09T08:21:28;98031.47;;;18.31;79.70
21824;BME280;11074;48.596;9.238;2022-09-09T08:23:56;98027.88;;;18.36;79.87
21824;BME280;11074;48.596;9.238;2022-09-09T08:26:26;98035.88;;;18.41;79.56
21824;BME280;11074;48.596;9.238;2022-09-09T08:28:56;98039.69;;;18.40;79.60
21824;BME280;11074;48.596;9.238;2022-09-09T08:31:33;98043.06;;;18.45;79.61
21824;BME280;11074;48.596;9.238;2022-09-09T08:34:00;98040.38;;;18.45;79.24
21824;BME280;11074;48.596;9.238;2022-09-09T08:36:29;98046.59;;;18.46;79.69
21824;BME280;11074;48.596;9.238;2022-09-09T08:38:57;98037.16;;;18.57;79.04
21824;BME280;11074;48.596;9.238;2022-09-09T08:45:15;98043.00;;;18.72;78.61
21824;BME280;11074;48.596;9.238;2022-09-09T08:48:09;98051.81;;;18.78;79.07
21824;BME280;11074;48.596;9.238;2022-09-09T08:50:42;98043.44;;;18.88;78.70
21824;BME280;11074;48.596;9.238;2022-09-09T08:53:17;98044.13;;;18.94;77.90
21824;BME280;11074;48.596;9.238;2022-09-09T08:55:49;98051.31;;;18.98;77.40
21824;BME280;11074;48.596;9.238;2022-09-09T08:58:30;98043.31;;;18.93;77.33
21824;BME280;11074;48.596;9.238;2022-09-09T09:01:35;98041.47;;;19.02;77.30
21824;BME280;11074;48.596;9.238;2022-09-09T09:05:20;98032.59;;;19.10;76.81
21824;BME280;11074;48.596;9.238;2022-09-09T09:07:50;98039.03;;;19.01;75.50
21824;BME280;11074;48.596;9.238;2022-09-09T09:13:18;98033.81;;;19.04;76.15
21824;BME280;11074;48.596;9.238;2022-09-09T09:15:55;98037.88;;;18.93;76.62
21824;BME280;11074;48.596;9.238;2022-09-09T09:18:22;98039.66;;;18.98;76.60
21824;BME280;11074;48.596;9.238;2022-09-09T09:21:15;98033.34;;;19.02;76.82
21824;BME280;11074;48.596;9.238;2022-09-09T09:23:55;98033.06;;;19.12;76.36
21824;BME280;11074;48.596;9.238;2022-09-09T09:26:27;98029.59;;;19.20;75.31
21824;BME280;11074;48.596;9.238;2022-09-09T09:28:56;98032.50;;;19.24;74.62
21824;BME280;11074;48.596;9.238;2022-09-09T09:31:24;98021.00;;;19.27;74.32
21824;BME280;11074;48.596;9.238;2022-09-09T09:33:55;98016.88;;;19.29;73.35
21824;BME280;11074;48.596;9.238;2022-09-09T09:36:34;98025.38;;;19.36;72.79
21824;BME280;11074;48.596;9.238;2022-09-09T09:39:03;98020.66;;;19.42;72.84
21824;BME280;11074;48.596;9.238;2022-09-09T09:44:02;98031.38;;;19.47;72.49
21824;BME280;11074;48.596;9.238;2022-09-09T09:46:28;98029.47;;;19.48;72.28
21824;BME280;11074;48.596;9.238;2022-09-09T09:49:05;98021.66;;;19.55;71.84
21824;BME280;11074;48.596;9.238;2022-09-09T09:51:35;98018.31;;;19.58;71.19
21824;BME280;11074;48.596;9.238;2022-09-09T09:54:18;98016.91;;;19.60;71.44
21824;BME280;11074;48.596;9.238;2022-09-09T09:56:48;98005.91;;;19.65;70.89
21824;BME280;11074;48.596;9.238;2022-09-09T09:59:35;98012.00;;;19.79;71.92
21824;BME280;11074;48.596;9.238;2022-09-09T10:04:38;98000.84;;;19.89;68.63
21824;BME280;11074;48.596;9.238;2022-09-09T10:07:22;97998.94;;;19.90;68.66
21824;BME280;11074;48.596;9.238;2022-09-09T10:09:56;97987.47;;;19.93;68.68
21824;BME280;11074;48.596;9.238;2022-09-09T10:18:34;97987.00;;;20.08;69.17
21824;BME280;11074;48.596;9.238;2022-09-09T10:29:39;97976.63;;;20.10;68.21
21824;BME280;11074;48.596;9.238;2022-09-09T10:38:17;97969.75;;;20.21;66.74
21824;BME280;11074;48.596;9.238;2022-09-09T10:55:42;97956.47;;;20.80;62.94
21824;BME280;11074;48.596;9.238;2022-09-09T10:58:24;97951.03;;;20.88;61.85
21824;BME280;11074;48.596;9.238;2022-09-09T11:00:56;97938.19;;;20.97;61.28
21824;BME280;11074;48.596;9.238;2022-09-09T11:03:28;97942.34;;;21.03;60.90
21824;BME280;11074;48.596;9.238;2022-09-09T11:06:13;97935.78;;;21.13;59.94
21824;BME280;11074;48.596;9.238;2022-09-09T11:08:40;97934.91;;;21.30;59.62
21824;BME280;11074;48.596;9.238;2022-09-09T11:11:39;97942.19;;;21.46;60.22
21824;BME280;11074;48.596;9.238;2022-09-09T11:14:43;97945.81;;;21.50;58.85
21824;BME280;11074;48.596;9.238;2022-09-09T11:17:23;97940.88;;;21.52;58.21
21824;BME280;11074;48.596;9.238;2022-09-09T11:19:50;97958.00;;;21.53;57.32
21824;BME280;11074;48.596;9.238;2022-09-09T11:22:37;97955.13;;;21.49;56.77
21824;BME280;11074;48.596;9.238;2022-09-09T11:25:38;97971.19;;;21.42;57.83
21824;BME280;11074;48.596;9.238;2022-09-09T11:28:32;97967.72;;;21.25;57.40
21824;BME280;11074;48.596;9.238;2022-09-09T11:34:36;98000.41;;;20.82;61.96
21824;BME280;11074;48.596;9.238;2022-09-09T11:40:23;97999.50;;;20.61;66.13
21824;BME280;11074;48.596;9.238;2022-09-09T11:43:03;98002.03;;;20.74;66.82
21824;BME280;11074;48.596;9.238;2022-09-09T11:45:33;97989.44;;;20.70;66.02
21824;BME280;11074;48.596;9.238;2022-09-09T11:48:03;98000.63;;;20.60;65.87
21824;BME280;11074;48.596;9.238;2022-09-09T11:50:36;97980.94;;;20.63;66.35
21824;BME280;11074;48.596;9.238;2022-09-09T11:55:40;98008.59;;;20.56;67.04
21824;BME280;11074;48.596;9.238;2022-09-09T11:58:17;98001.56;;;20.81;66.43
21824;BME280;11074;48.596;9.238;2022-09-09T12:00:46;98003.41;;;21.06;64.49
21824;BME280;11074;48.596;9.238;2022-09-09T12:03:49;97998.91;;;21.19;62.05
21824;BME280;11074;48.596;9.238;2022-09-09T12:06:25;97991.22;;;21.29;60.55
21824;BME280;11074;48.596;9.238;2022-09-09T12:09:07;97987.38;;;21.30;59.27
21824;BME280;11074;48.596;9.238;2022-09-09T12:11:33;97986.31;;;21.52;59.17
21824;BME280;11074;48.596;9.238;2022-09-09T12:14:00;97990.16;;;21.51;57.83
21824;BME280;11074;48.596;9.238;2022-09-09T12:16:34;97987.44;;;21.51;56.85
21824;BME280;11074;48.596;9.238;2022-09-09T12:19:22;97988.19;;;21.68;57.24
21824;BME280;11074;48.596;9.238;2022-09-09T12:24:56;97973.22;;;21.74;55.46
21824;BME280;11074;48.596;9.238;2022-09-09T12:27:35;97965.19;;;21.87;55.50
21824;BME280;11074;48.596;9.238;2022-09-09T12:30:12;97957.50;;;22.09;54.16
21824;BME280;11074;48.596;9.238;2022-09-09T12:32:39;97965.34;;;22.11;53.19
21824;BME280;11074;48.596;9.238;2022-09-09T12:35:20;97952.06;;;22.30;54.04
21824;BME280;11074;48.596;9.238;2022-09-09T12:38:12;97955.69;;;22.55;53.27
21824;BME280;11074;48.596;9.238;2022-09-09T12:40:40;97955.78;;;22.67;53.00
21824;BME280;11074;48.596;9.238;2022-09-09T12:43:22;97969.56;;;22.82;52.91
21824;BME280;11074;48.596;9.238;2022-09-09T12:45:53;97970.31;;;22.71;52.98
21824;BME280;11074;48.596;9.238;2022-09-09T12:48:29;97968.84;;;22.73;53.33
21824;BME280;11074;48.596;9.238;2022-09-09T12:50:57;97962.25;;;22.74;53.06
21824;BME280;11074;48.596;9.238;2022-09-09T12:53:34;97967.44;;;23.00;53.62
21824;BME280;11074;48.596;9.238;2022-09-09T12:56:08;97964.75;;;23.12;52.67
21824;BME280;11074;48.596;9.238;2022-09-09T12:58:37;97952.28;;;23.23;52.75
21824;BME280;11074;48.596;9.238;2022-09-09T13:01:05;97964.09;;;23.27;52.47
21824;BME280;11074;48.596;9.238;2022-09-09T13:03:41;97963.53;;;23.34;51.77
21824;BME280;11074;48.596;9.238;2022-09-09T13:06:21;97956.78;;;23.19;51.25
21824;BME280;11074;48.596;9.238;2022-09-09T13:08:50;97966.63;;;23.00;52.34
21824;BME280;11074;48.596;9.238;2022-09-09T13:11:31;97962.06;;;22.91;51.04
21824;BME280;11074;48.596;9.238;2022-09-09T13:14:02;97968.63;;;22.78;50.93
21824;BME280;11074;48.596;9.238;2022-09-09T13:16:32;97949.84;;;22.44;52.71
21824;BME280;11074;48.596;9.238;2022-09-09T13:19:09;97947.47;;;22.43;52.04
21824;BME280;11074;48.596;9.238;2022-09-09T13:21:39;97949.91;;;22.56;52.83
21824;BME280;11074;48.596;9.238;2022-09-09T13:24:31;97948.72;;;22.66;52.17
21824;BME280;11074;48.596;9.238;2022-09-09T13:27:26;97953.19;;;22.82;51.50
21824;BME280;11074;48.596;9.238;2022-09-09T13:29:54;97952.91;;;22.96;51.77
21824;BME280;11074;48.596;9.238;2022-09-09T13:32:21;97956.78;;;23.07;52.28
21824;BME280;11074;48.596;9.238;2022-09-09T13:35:01;97955.19;;;23.06;50.85
21824;BME280;11074;48.596;9.238;2022-09-09T13:37:38;97945.75;;;23.16;50.50
21824;BME280;11074;48.596;9.238;2022-09-09T13:40:17;97931.00;;;23.17;52.23
21824;BME280;11074;48.596;9.238;2022-09-09T13:42:44;97939.41;;;23.24;52.46
21824;BME280;11074;48.596;9.238;2022-09-09T13:45:23;97942.03;;;23.20;52.21
21824;BME280;11074;48.596;9.238;2022-09-09T13:47:53;97933.28;;;23.27;52.18
21824;BME280;11074;48.596;9.238;2022-09-09T13:50:30;97938.72;;;23.27;51.45
21824;BME280;11074;48.596;9.238;2022-09-09T13:52:58;97929.56;;;23.43;50.83
21824;BME280;11074;48.596;9.238;2022-09-09T13:55:27;97925.72;;;23.44;50.87
21824;BME280;11074;48.596;9.238;2022-09-09T13:58:02;97922.84;;;23.41;51.63
21824;BME280;11074;48.596;9.238;2022-09-09T14:00:34;97930.81;;;23.46;50.64
21824;BME280;11074;48.596;9.238;2022-09-09T14:03:00;97927.38;;;23.61;51.19
21824;BME280;11074;48.596;9.238;2022-09-09T14:05:29;97906.03;;;23.63;50.16
21824;BME280;11074;48.596;9.238;2022-09-09T14:07:55;97917.72;;;23.64;48.41
21824;BME280;11074;48.596;9.238;2022-09-09T14:10:21;97915.66;;;23.73;49.20
21824;BME280;11074;48.596;9.238;2022-09-09T14:12:47;97916.03;;;23.71;49.31
21824;BME280;11074;48.596;9.238;2022-09-09T14:15:13;97917.78;;;23.79;48.90
21824;BME280;11074;48.596;9.238;2022-09-09T14:17:39;97912.56;;;23.86;50.53
21824;BME280;11074;48.596;9.238;2022-09-09T14:20:07;97919.06;;;23.82;48.21
21824;BME280;11074;48.596;9.238;2022-09-09T14:22:36;97914.97;;;23.76;48.22
21824;BME280;11074;48.596;9.238;2022-09-09T14:25:03;97911.88;;;23.77;49.04
21824;BME280;11074;48.596;9.238;2022-09-09T14:27:29;97915.63;;;23.85;47.76
21824;BME280;11074;48.596;9.238;2022-09-09T14:29:55;97901.97;;;23.85;47.32
21824;BME280;11074;48.596;9.238;2022-09-09T14:32:21;97914.38;;;23.94;48.55
21824;BME280;11074;48.596;9.238;2022-09-09T14:34:47;97914.25;;;24.03;46.90
21824;BME280;11074;48.596;9.238;2022-09-09T14:37:17;97902.59;;;24.06;46.13
21824;BME280;11074;48.596;9.238;2022-09-09T14:39:44;97910.38;;;24.16;48.14
21824;BME280;11074;48.596;9.238;2022-09-09T14:42:10;97917.31;;;24.01;48.36
21824;BME280;11074;48.596;9.238;2022-09-09T14:44:37;97916.00;;;23.83;47.36
21824;BME280;11074;48.596;9.238;2022-09-09T14:47:07;97906.75;;;23.88;46.93
21824;BME280;11074;48.596;9.238;2022-09-09T14:49:35;97906.56;;;23.81;46.93
21824;BME280;11074;48.596;9.238;2022-09-09T14:52:03;97912.25;;;23.76;47.05
21824;BME280;11074;48.596;9.238;2022-09-09T14:54:31;97923.84;;;23.73;46.88
21824;BME280;11074;48.596;9.238;2022-09-09T14:56:57;97904.53;;;23.66;47.79
21824;BME280;11074;48.596;9.238;2022-09-09T14:59:24;97904.63;;;23.69;47.71
21824;BME280;11074;48.596;9.238;2022-09-09T15:01:50;97904.63;;;23.69;47.04
21824;BME280;11074;48.596;9.238;2022-09-09T15:04:15;97902.94;;;23.65;46.63
21824;BME280;11074;48.596;9.238;2022-09-09T15:06:42;97904.53;;;23.53;47.80
21824;BME280;11074;48.596;9.238;2022-09-09T15:09:10;97907.50;;;23.48;46.97